sensor_id;sensor_type;location;lat;lon;timestamp;P1;durP1;ratioP1;P2;durP2;ratioP2
13014;SDS011;6573;57.696;11.950;2023-02-04T00:00:34;4.10;;;3.40;;
13014;SDS011;6573;57.696;11.950;2023-02-04T00:03:04;4.37;;;3.20;;
13014;SDS011;6573;57.696;11.950;2023-02-04T00:05:33;4.13;;;3.23;;
13014;SDS011;6573;57.696;11.950;2023-02-04T00:08:01;3.53;;;2.80;;
13014;SDS011;6573;57.696;11.950;2023-02-04T00:10:32;2.83;;;2.50;;
13014;SDS011;6573;57.696;11.950;2023-02-04T00:13:01;3.07;;;2.77;;
13014;SDS011;6573;57.696;11.950;2023-02-04T00:15:29;2.93;;;2.57;;
13014;SDS011;6573;57.696;11.950;2023-02-04T00:17:59;3.47;;;3.00;;
13014;SDS011;6573;57.696;11.950;2023-02-04T00:20:27;3.40;;;3.10;;
13014;SDS011;6573;57.696;11.950;2023-02-04T00:22:56;4.83;;;2.70;;
13014;SDS011;6573;57.696;11.950;2023-02-04T00:25:24;3.93;;;2.87;;
13014;SDS011;6573;57.696;11.950;2023-02-04T00:27:53;4.30;;;2.70;;
13014;SDS011;6573;57.696;11.950;2023-02-04T00:30:21;4.33;;;3.00;;
13014;SDS011;6573;57.696;11.950;2023-02-04T00:32:50;5.27;;;3.47;;
13014;SDS011;6573;57.696;11.950;2023-02-04T00:35:22;5.13;;;3.30;;
13014;SDS011;6573;57.696;11.950;2023-02-04T00:37:51;4.93;;;3.40;;
13014;SDS011;6573;57.696;11.950;2023-02-04T00:40:19;4.80;;;3.10;;
13014;SDS011;6573;57.696;11.950;2023-02-04T00:42:47;4.90;;;3.33;;
13014;SDS011;6573;57.696;11.950;2023-02-04T00:45:15;5.43;;;3.60;;
13014;SDS011;6573;57.696;11.950;2023-02-04T00:47:44;4.23;;;3.00;;
13014;SDS011;6573;57.696;11.950;2023-02-04T00:52:42;3.77;;;2.97;;
13014;SDS011;6573;57.696;11.950;2023-02-04T00:55:11;4.50;;;2.70;;
13014;SDS011;6573;57.696;11.950;2023-02-04T00:57:41;4.60;;;2.43;;
13014;SDS011;6573;57.696;11.950;2023-02-04T01:00:10;4.37;;;2.87;;
13014;SDS011;6573;57.696;11.950;2023-02-04T01:02:39;3.37;;;2.53;;
13014;SDS011;6573;57.696;11.950;2023-02-04T01:05:08;11.50;;;2.67;;
13014;SDS011;6573;57.696;11.950;2023-02-04T01:07:36;3.33;;;2.60;;
13014;SDS011;6573;57.696;11.950;2023-02-04T01:10:06;4.87;;;2.73;;
13014;SDS011;6573;57.696;11.950;2023-02-04T01:12:36;4.03;;;2.90;;
13014;SDS011;6573;57.696;11.950;2023-02-04T01:15:05;4.63;;;2.73;;
13014;SDS011;6573;57.696;11.950;2023-02-04T01:17:34;3.67;;;2.47;;
13014;SDS011;6573;57.696;11.950;2023-02-04T01:20:05;5.27;;;3.03;;
13014;SDS011;6573;57.696;11.950;2023-02-04T01:22:34;6.60;;;3.33;;
13014;SDS011;6573;57.696;11.950;2023-02-04T01:25:03;7.20;;;3.90;;
13014;SDS011;6573;57.696;11.950;2023-02-04T01:27:33;4.90;;;3.00;;
13014;SDS011;6573;57.696;11.950;2023-02-04T01:30:02;5.93;;;3.10;;
13014;SDS011;6573;57.696;11.950;2023-02-04T01:32:30;4.87;;;3.23;;
13014;SDS011;6573;57.696;11.950;2023-02-04T01:34:59;4.10;;;3.10;;
13014;SDS011;6573;57.696;11.950;2023-02-04T01:37:27;4.80;;;2.90;;
13014;SDS011;6573;57.696;11.950;2023-02-04T01:39:56;6.23;;;3.60;;
13014;SDS011;6573;57.696;11.950;2023-02-04T01:42:25;4.87;;;3.20;;
13014;SDS011;6573;57.696;11.950;2023-02-04T01:44:54;4.53;;;3.17;;
13014;SDS011;6573;57.696;11.950;2023-02-04T01:47:23;3.97;;;2.90;;
13014;SDS011;6573;57.696;11.950;2023-02-04T01:49:56;5.13;;;3.50;;
13014;SDS011;6573;57.696;11.950;2023-02-04T01:52:25;5.90;;;3.40;;
13014;SDS011;6573;57.696;11.950;2023-02-04T01:54:56;3.47;;;2.47;;
13014;SDS011;6573;57.696;11.950;2023-02-04T01:57:24;4.60;;;3.07;;
13014;SDS011;6573;57.696;11.950;2023-02-04T01:59:54;4.57;;;2.77;;
13014;SDS011;6573;57.696;11.950;2023-02-04T02:02:37;3.90;;;2.40;;
13014;SDS011;6573;57.696;11.950;2023-02-04T02:05:08;3.40;;;2.20;;
13014;SDS011;6573;57.696;11.950;2023-02-04T02:07:39;4.10;;;2.53;;
13014;SDS011;6573;57.696;11.950;2023-02-04T02:10:08;3.23;;;2.23;;
13014;SDS011;6573;57.696;11.950;2023-02-04T02:12:38;3.40;;;2.50;;
13014;SDS011;6573;57.696;11.950;2023-02-04T02:15:10;3.13;;;2.17;;
13014;SDS011;6573;57.696;11.950;2023-02-04T02:17:39;5.40;;;2.73;;
13014;SDS011;6573;57.696;11.950;2023-02-04T02:20:08;5.03;;;3.20;;
13014;SDS011;6573;57.696;11.950;2023-02-04T02:22:40;5.27;;;3.40;;
13014;SDS011;6573;57.696;11.950;2023-02-04T02:25:18;4.63;;;3.07;;
13014;SDS011;6573;57.696;11.950;2023-02-04T02:27:47;4.13;;;2.80;;
13014;SDS011;6573;57.696;11.950;2023-02-04T02:30:16;4.63;;;3.10;;
13014;SDS011;6573;57.696;11.950;2023-02-04T02:32:45;6.20;;;2.80;;
13014;SDS011;6573;57.696;11.950;2023-02-04T02:35:15;5.27;;;3.30;;
13014;SDS011;6573;57.696;11.950;2023-02-04T02:37:44;7.40;;;3.50;;
13014;SDS011;6573;57.696;11.950;2023-02-04T02:40:12;4.57;;;3.20;;
13014;SDS011;6573;57.696;11.950;2023-02-04T02:42:43;4.70;;;3.00;;
13014;SDS011;6573;57.696;11.950;2023-02-04T02:45:17;6.00;;;3.07;;
13014;SDS011;6573;57.696;11.950;2023-02-04T02:47:49;5.83;;;2.90;;
13014;SDS011;6573;57.696;11.950;2023-02-04T02:50:19;3.67;;;2.40;;
13014;SDS011;6573;57.696;11.950;2023-02-04T02:52:50;5.20;;;2.80;;
13014;SDS011;6573;57.696;11.950;2023-02-04T02:55:19;2.80;;;2.23;;
13014;SDS011;6573;57.696;11.950;2023-02-04T02:57:51;3.83;;;2.50;;
13014;SDS011;6573;57.696;11.950;2023-02-04T03:00:22;3.63;;;2.37;;
13014;SDS011;6573;57.696;11.950;2023-02-04T03:02:53;2.77;;;2.40;;
13014;SDS011;6573;57.696;11.950;2023-02-04T03:05:25;4.27;;;2.80;;
13014;SDS011;6573;57.696;11.950;2023-02-04T03:07:55;4.50;;;2.60;;
13014;SDS011;6573;57.696;11.950;2023-02-04T03:10:24;3.43;;;2.67;;
13014;SDS011;6573;57.696;11.950;2023-02-04T03:12:54;4.07;;;2.53;;
13014;SDS011;6573;57.696;11.950;2023-02-04T03:15:23;3.83;;;2.50;;
13014;SDS011;6573;57.696;11.950;2023-02-04T03:17:51;4.47;;;2.50;;
13014;SDS011;6573;57.696;11.950;2023-02-04T03:20:22;3.97;;;2.27;;
13014;SDS011;6573;57.696;11.950;2023-02-04T03:22:51;4.00;;;2.20;;
13014;SDS011;6573;57.696;11.950;2023-02-04T03:25:21;5.10;;;2.37;;
13014;SDS011;6573;57.696;11.950;2023-02-04T03:27:52;3.53;;;2.70;;
13014;SDS011;6573;57.696;11.950;2023-02-04T03:30:22;4.77;;;2.63;;
13014;SDS011;6573;57.696;11.950;2023-02-04T03:32:51;4.90;;;2.37;;
13014;SDS011;6573;57.696;11.950;2023-02-04T03:35:20;3.43;;;2.40;;
13014;SDS011;6573;57.696;11.950;2023-02-04T03:37:49;3.57;;;2.13;;
13014;SDS011;6573;57.696;11.950;2023-02-04T03:40:17;5.07;;;2.20;;
13014;SDS011;6573;57.696;11.950;2023-02-04T03:42:46;4.07;;;2.07;;
13014;SDS011;6573;57.696;11.950;2023-02-04T03:45:16;6.30;;;1.90;;
13014;SDS011;6573;57.696;11.950;2023-02-04T03:47:44;5.17;;;1.93;;
13014;SDS011;6573;57.696;11.950;2023-02-04T03:50:13;3.30;;;2.20;;
13014;SDS011;6573;57.696;11.950;2023-02-04T03:52:41;2.83;;;2.00;;
13014;SDS011;6573;57.696;11.950;2023-02-04T03:55:10;4.27;;;2.00;;
13014;SDS011;6573;57.696;11.950;2023-02-04T03:57:39;3.83;;;2.07;;
13014;SDS011;6573;57.696;11.950;2023-02-04T04:00:08;3.97;;;1.80;;
13014;SDS011;6573;57.696;11.950;2023-02-04T04:02:38;3.37;;;2.00;;
13014;SDS011;6573;57.696;11.950;2023-02-04T04:05:08;3.97;;;2.00;;
13014;SDS011;6573;57.696;11.950;2023-02-04T04:07:36;4.63;;;2.43;;
13014;SDS011;6573;57.696;11.950;2023-02-04T04:10:05;2.03;;;1.80;;
13014;SDS011;6573;57.696;11.950;2023-02-04T04:12:34;3.40;;;1.67;;
13014;SDS011;6573;57.696;11.950;2023-02-04T04:15:02;3.33;;;1.60;;
13014;SDS011;6573;57.696;11.950;2023-02-04T04:17:31;3.47;;;1.70;;
13014;SDS011;6573;57.696;11.950;2023-02-04T04:20:01;3.17;;;1.70;;
13014;SDS011;6573;57.696;11.950;2023-02-04T04:22:29;3.53;;;1.70;;
13014;SDS011;6573;57.696;11.950;2023-02-04T04:24:57;3.03;;;1.80;;
13014;SDS011;6573;57.696;11.950;2023-02-04T04:27:26;2.57;;;1.77;;
13014;SDS011;6573;57.696;11.950;2023-02-04T04:29:55;3.00;;;1.93;;
13014;SDS011;6573;57.696;11.950;2023-02-04T04:32:24;3.13;;;1.70;;
13014;SDS011;6573;57.696;11.950;2023-02-04T04:34:52;3.33;;;1.73;;
13014;SDS011;6573;57.696;11.950;2023-02-04T04:37:22;3.10;;;1.80;;
13014;SDS011;6573;57.696;11.950;2023-02-04T04:39:50;3.47;;;1.70;;
13014;SDS011;6573;57.696;11.950;2023-02-04T04:42:19;2.53;;;1.70;;
13014;SDS011;6573;57.696;11.950;2023-02-04T04:44:47;3.07;;;1.80;;
13014;SDS011;6573;57.696;11.950;2023-02-04T04:47:16;2.57;;;1.60;;
13014;SDS011;6573;57.696;11.950;2023-02-04T04:49:45;3.73;;;1.83;;
13014;SDS011;6573;57.696;11.950;2023-02-04T04:52:13;2.83;;;1.63;;
13014;SDS011;6573;57.696;11.950;2023-02-04T04:54:45;2.87;;;1.60;;
13014;SDS011;6573;57.696;11.950;2023-02-04T04:57:15;2.73;;;1.50;;
13014;SDS011;6573;57.696;11.950;2023-02-04T04:59:43;1.70;;;1.20;;
13014;SDS011;6573;57.696;11.950;2023-02-04T05:02:12;3.23;;;1.53;;
13014;SDS011;6573;57.696;11.950;2023-02-04T05:04:40;4.90;;;1.60;;
13014;SDS011;6573;57.696;11.950;2023-02-04T05:07:08;3.33;;;1.80;;
13014;SDS011;6573;57.696;11.950;2023-02-04T05:09:36;2.10;;;1.50;;
13014;SDS011;6573;57.696;11.950;2023-02-04T05:12:06;2.40;;;1.60;;
13014;SDS011;6573;57.696;11.950;2023-02-04T05:14:34;3.40;;;1.57;;
13014;SDS011;6573;57.696;11.950;2023-02-04T05:17:03;4.20;;;1.90;;
13014;SDS011;6573;57.696;11.950;2023-02-04T05:19:31;3.97;;;1.57;;
13014;SDS011;6573;57.696;11.950;2023-02-04T05:21:59;2.70;;;1.40;;
13014;SDS011;6573;57.696;11.950;2023-02-04T05:24:28;2.80;;;1.60;;
13014;SDS011;6573;57.696;11.950;2023-02-04T05:26:56;3.17;;;1.50;;
13014;SDS011;6573;57.696;11.950;2023-02-04T05:29:26;3.13;;;1.50;;
13014;SDS011;6573;57.696;11.950;2023-02-04T05:31:54;3.13;;;1.53;;
13014;SDS011;6573;57.696;11.950;2023-02-04T05:34:23;2.83;;;1.80;;
13014;SDS011;6573;57.696;11.950;2023-02-04T05:36:51;5.33;;;2.00;;
13014;SDS011;6573;57.696;11.950;2023-02-04T05:39:22;2.60;;;1.70;;
13014;SDS011;6573;57.696;11.950;2023-02-04T05:41:50;2.60;;;1.60;;
13014;SDS011;6573;57.696;11.950;2023-02-04T05:44:19;1.57;;;1.47;;
13014;SDS011;6573;57.696;11.950;2023-02-04T05:46:48;3.97;;;1.70;;
13014;SDS011;6573;57.696;11.950;2023-02-04T05:49:17;3.20;;;1.70;;
13014;SDS011;6573;57.696;11.950;2023-02-04T05:51:45;4.00;;;1.80;;
13014;SDS011;6573;57.696;11.950;2023-02-04T05:54:16;3.70;;;1.77;;
13014;SDS011;6573;57.696;11.950;2023-02-04T05:56:46;3.33;;;1.70;;
13014;SDS011;6573;57.696;11.950;2023-02-04T05:59:14;3.67;;;1.77;;
13014;SDS011;6573;57.696;11.950;2023-02-04T06:01:43;3.30;;;1.70;;
13014;SDS011;6573;57.696;11.950;2023-02-04T06:04:13;4.70;;;2.00;;
13014;SDS011;6573;57.696;11.950;2023-02-04T06:06:42;3.40;;;2.07;;
13014;SDS011;6573;57.696;11.950;2023-02-04T06:09:10;5.07;;;1.97;;
13014;SDS011;6573;57.696;11.950;2023-02-04T06:11:39;3.63;;;1.80;;
13014;SDS011;6573;57.696;11.950;2023-02-04T06:14:08;4.47;;;1.97;;
13014;SDS011;6573;57.696;11.950;2023-02-04T06:16:36;4.50;;;2.00;;
13014;SDS011;6573;57.696;11.950;2023-02-04T06:19:05;5.13;;;1.87;;
13014;SDS011;6573;57.696;11.950;2023-02-04T06:21:34;4.33;;;1.90;;
13014;SDS011;6573;57.696;11.950;2023-02-04T06:24:03;4.00;;;2.10;;
13014;SDS011;6573;57.696;11.950;2023-02-04T06:26:32;4.13;;;2.20;;
13014;SDS011;6573;57.696;11.950;2023-02-04T06:29:00;3.33;;;2.20;;
13014;SDS011;6573;57.696;11.950;2023-02-04T06:31:28;4.27;;;2.17;;
13014;SDS011;6573;57.696;11.950;2023-02-04T06:33:57;3.87;;;2.10;;
13014;SDS011;6573;57.696;11.950;2023-02-04T06:36:27;4.03;;;1.83;;
13014;SDS011;6573;57.696;11.950;2023-02-04T06:38:57;4.07;;;2.00;;
13014;SDS011;6573;57.696;11.950;2023-02-04T06:41:25;3.67;;;2.00;;
13014;SDS011;6573;57.696;11.950;2023-02-04T06:43:53;2.88;;;2.00;;
13014;SDS011;6573;57.696;11.950;2023-02-04T06:46:22;2.63;;;2.10;;
13014;SDS011;6573;57.696;11.950;2023-02-04T06:48:50;3.87;;;2.40;;
13014;SDS011;6573;57.696;11.950;2023-02-04T06:51:18;4.73;;;2.00;;
13014;SDS011;6573;57.696;11.950;2023-02-04T06:53:46;4.57;;;2.23;;
13014;SDS011;6573;57.696;11.950;2023-02-04T06:56:17;6.63;;;2.60;;
13014;SDS011;6573;57.696;11.950;2023-02-04T06:58:45;3.65;;;2.28;;
13014;SDS011;6573;57.696;11.950;2023-02-04T07:01:13;4.77;;;2.17;;
13014;SDS011;6573;57.696;11.950;2023-02-04T07:03:41;3.80;;;2.30;;
13014;SDS011;6573;57.696;11.950;2023-02-04T07:06:10;3.37;;;2.53;;
13014;SDS011;6573;57.696;11.950;2023-02-04T07:08:38;4.63;;;2.47;;
13014;SDS011;6573;57.696;11.950;2023-02-04T07:11:06;4.33;;;2.40;;
13014;SDS011;6573;57.696;11.950;2023-02-04T07:13:36;10.88;;;2.60;;
13014;SDS011;6573;57.696;11.950;2023-02-04T07:16:05;5.50;;;2.57;;
13014;SDS011;6573;57.696;11.950;2023-02-04T07:18:34;4.90;;;2.73;;
13014;SDS011;6573;57.696;11.950;2023-02-04T07:21:02;5.10;;;2.60;;
13014;SDS011;6573;57.696;11.950;2023-02-04T07:23:30;4.73;;;2.70;;
13014;SDS011;6573;57.696;11.950;2023-02-04T07:25:59;3.87;;;2.50;;
13014;SDS011;6573;57.696;11.950;2023-02-04T07:28:27;4.80;;;2.63;;
13014;SDS011;6573;57.696;11.950;2023-02-04T07:30:58;3.73;;;2.67;;
13014;SDS011;6573;57.696;11.950;2023-02-04T07:33:26;4.97;;;2.67;;
13014;SDS011;6573;57.696;11.950;2023-02-04T07:35:55;5.50;;;3.00;;
13014;SDS011;6573;57.696;11.950;2023-02-04T07:38:23;4.03;;;2.70;;
13014;SDS011;6573;57.696;11.950;2023-02-04T07:40:51;4.30;;;2.60;;
13014;SDS011;6573;57.696;11.950;2023-02-04T07:43:21;4.00;;;2.60;;
13014;SDS011;6573;57.696;11.950;2023-02-04T07:45:49;4.00;;;2.33;;
13014;SDS011;6573;57.696;11.950;2023-02-04T07:48:19;3.33;;;2.40;;
13014;SDS011;6573;57.696;11.950;2023-02-04T07:50:47;3.77;;;2.50;;
13014;SDS011;6573;57.696;11.950;2023-02-04T07:53:16;3.20;;;2.15;;
13014;SDS011;6573;57.696;11.950;2023-02-04T07:55:44;2.63;;;1.87;;
13014;SDS011;6573;57.696;11.950;2023-02-04T07:58:13;4.13;;;2.23;;
13014;SDS011;6573;57.696;11.950;2023-02-04T08:00:42;4.27;;;2.70;;
13014;SDS011;6573;57.696;11.950;2023-02-04T08:03:10;5.00;;;2.43;;
13014;SDS011;6573;57.696;11.950;2023-02-04T08:05:40;4.27;;;2.20;;
13014;SDS011;6573;57.696;11.950;2023-02-04T08:08:08;3.33;;;2.10;;
13014;SDS011;6573;57.696;11.950;2023-02-04T08:10:38;4.63;;;2.50;;
13014;SDS011;6573;57.696;11.950;2023-02-04T08:13:06;3.77;;;2.37;;
13014;SDS011;6573;57.696;11.950;2023-02-04T08:15:35;5.40;;;2.33;;
13014;SDS011;6573;57.696;11.950;2023-02-04T08:18:03;5.27;;;2.50;;
13014;SDS011;6573;57.696;11.950;2023-02-04T08:20:31;5.20;;;2.77;;
13014;SDS011;6573;57.696;11.950;2023-02-04T08:23:02;5.07;;;2.93;;
13014;SDS011;6573;57.696;11.950;2023-02-04T08:25:30;8.00;;;3.30;;
13014;SDS011;6573;57.696;11.950;2023-02-04T08:27:58;6.60;;;3.40;;
13014;SDS011;6573;57.696;11.950;2023-02-04T08:30:27;4.80;;;3.07;;
13014;SDS011;6573;57.696;11.950;2023-02-04T08:32:56;5.77;;;3.27;;
13014;SDS011;6573;57.696;11.950;2023-02-04T08:35:25;7.03;;;2.90;;
13014;SDS011;6573;57.696;11.950;2023-02-04T08:37:53;6.47;;;3.27;;
13014;SDS011;6573;57.696;11.950;2023-02-04T08:40:23;6.70;;;3.13;;
13014;SDS011;6573;57.696;11.950;2023-02-04T08:42:51;7.20;;;3.30;;
13014;SDS011;6573;57.696;11.950;2023-02-04T08:45:19;5.83;;;3.40;;
13014;SDS011;6573;57.696;11.950;2023-02-04T08:47:48;5.80;;;3.43;;
13014;SDS011;6573;57.696;11.950;2023-02-04T08:50:16;6.43;;;3.20;;
13014;SDS011;6573;57.696;11.950;2023-02-04T08:52:44;5.03;;;3.10;;
13014;SDS011;6573;57.696;11.950;2023-02-04T08:55:13;7.30;;;3.90;;
13014;SDS011;6573;57.696;11.950;2023-02-04T08:57:43;7.57;;;4.03;;
13014;SDS011;6573;57.696;11.950;2023-02-04T09:00:11;6.63;;;3.70;;
13014;SDS011;6573;57.696;11.950;2023-02-04T09:02:40;5.07;;;3.33;;
13014;SDS011;6573;57.696;11.950;2023-02-04T09:05:08;4.90;;;3.50;;
13014;SDS011;6573;57.696;11.950;2023-02-04T09:07:37;4.88;;;3.50;;
13014;SDS011;6573;57.696;11.950;2023-02-04T09:10:05;5.80;;;3.03;;
13014;SDS011;6573;57.696;11.950;2023-02-04T09:12:33;6.90;;;3.37;;
13014;SDS011;6573;57.696;11.950;2023-02-04T09:15:04;6.90;;;3.43;;
13014;SDS011;6573;57.696;11.950;2023-02-04T09:17:32;10.27;;;5.37;;
13014;SDS011;6573;57.696;11.950;2023-02-04T09:20:01;6.33;;;3.47;;
13014;SDS011;6573;57.696;11.950;2023-02-04T09:22:29;7.57;;;3.17;;
13014;SDS011;6573;57.696;11.950;2023-02-04T09:24:57;5.60;;;3.30;;
13014;SDS011;6573;57.696;11.950;2023-02-04T09:27:26;9.02;;;4.00;;
13014;SDS011;6573;57.696;11.950;2023-02-04T09:29:54;6.33;;;3.20;;
13014;SDS011;6573;57.696;11.950;2023-02-04T09:32:24;27.40;;;5.63;;
13014;SDS011;6573;57.696;11.950;2023-02-04T09:34:53;4.80;;;3.50;;
13014;SDS011;6573;57.696;11.950;2023-02-04T09:37:22;6.17;;;3.70;;
13014;SDS011;6573;57.696;11.950;2023-02-04T09:39:55;6.23;;;3.50;;
13014;SDS011;6573;57.696;11.950;2023-02-04T09:42:24;13.37;;;3.93;;
13014;SDS011;6573;57.696;11.950;2023-02-04T09:44:53;9.00;;;4.37;;
13014;SDS011;6573;57.696;11.950;2023-02-04T09:47:22;6.87;;;3.70;;
13014;SDS011;6573;57.696;11.950;2023-02-04T09:49:54;5.27;;;3.60;;
13014;SDS011;6573;57.696;11.950;2023-02-04T09:52:26;7.70;;;3.83;;
13014;SDS011;6573;57.696;11.950;2023-02-04T09:54:55;7.23;;;4.10;;
13014;SDS011;6573;57.696;11.950;2023-02-04T09:57:23;7.50;;;4.40;;
13014;SDS011;6573;57.696;11.950;2023-02-04T09:59:52;7.00;;;4.30;;
13014;SDS011;6573;57.696;11.950;2023-02-04T10:02:22;9.67;;;4.07;;
13014;SDS011;6573;57.696;11.950;2023-02-04T10:04:54;8.03;;;4.13;;
13014;SDS011;6573;57.696;11.950;2023-02-04T10:07:25;6.30;;;3.40;;
13014;SDS011;6573;57.696;11.950;2023-02-04T10:09:56;11.57;;;3.93;;
13014;SDS011;6573;57.696;11.950;2023-02-04T10:12:25;5.27;;;3.40;;
13014;SDS011;6573;57.696;11.950;2023-02-04T10:14:54;8.27;;;3.63;;
13014;SDS011;6573;57.696;11.950;2023-02-04T10:17:24;5.33;;;4.10;;
13014;SDS011;6573;57.696;11.950;2023-02-04T10:19:54;5.50;;;3.37;;
13014;SDS011;6573;57.696;11.950;2023-02-04T10:22:23;7.63;;;3.83;;
13014;SDS011;6573;57.696;11.950;2023-02-04T10:24:52;8.13;;;3.93;;
13014;SDS011;6573;57.696;11.950;2023-02-04T10:27:21;5.67;;;3.50;;
13014;SDS011;6573;57.696;11.950;2023-02-04T10:29:56;5.13;;;3.60;;
13014;SDS011;6573;57.696;11.950;2023-02-04T10:32:29;6.03;;;3.63;;
13014;SDS011;6573;57.696;11.950;2023-02-04T10:35:01;6.20;;;3.87;;
13014;SDS011;6573;57.696;11.950;2023-02-04T10:37:31;6.43;;;3.83;;
13014;SDS011;6573;57.696;11.950;2023-02-04T10:39:59;4.77;;;3.40;;
13014;SDS011;6573;57.696;11.950;2023-02-04T10:42:29;9.10;;;3.77;;
13014;SDS011;6573;57.696;11.950;2023-02-04T10:44:58;7.93;;;3.90;;
13014;SDS011;6573;57.696;11.950;2023-02-04T10:47:27;8.77;;;3.63;;
13014;SDS011;6573;57.696;11.950;2023-02-04T10:49:58;4.90;;;3.50;;
13014;SDS011;6573;57.696;11.950;2023-02-04T10:52:33;4.97;;;3.53;;
13014;SDS011;6573;57.696;11.950;2023-02-04T10:55:05;5.17;;;3.60;;
13014;SDS011;6573;57.696;11.950;2023-02-04T10:57:38;5.03;;;3.20;;
13014;SDS011;6573;57.696;11.950;2023-02-04T11:00:14;4.73;;;3.00;;
13014;SDS011;6573;57.696;11.950;2023-02-04T11:02:47;4.80;;;3.00;;
13014;SDS011;6573;57.696;11.950;2023-02-04T11:05:20;5.37;;;2.87;;
13014;SDS011;6573;57.696;11.950;2023-02-04T11:07:51;4.63;;;2.80;;
13014;SDS011;6573;57.696;11.950;2023-02-04T11:10:20;4.77;;;2.30;;
13014;SDS011;6573;57.696;11.950;2023-02-04T11:12:58;3.10;;;2.20;;
13014;SDS011;6573;57.696;11.950;2023-02-04T11:15:44;3.63;;;1.93;;
13014;SDS011;6573;57.696;11.950;2023-02-04T11:18:26;3.53;;;2.20;;
13014;SDS011;6573;57.696;11.950;2023-02-04T11:20:58;3.47;;;2.40;;
13014;SDS011;6573;57.696;11.950;2023-02-04T11:23:30;3.33;;;2.07;;
13014;SDS011;6573;57.696;11.950;2023-02-04T11:26:03;4.43;;;2.40;;
13014;SDS011;6573;57.696;11.950;2023-02-04T11:28:50;4.17;;;2.33;;
13014;SDS011;6573;57.696;11.950;2023-02-04T11:34:26;3.70;;;2.37;;
13014;SDS011;6573;57.696;11.950;2023-02-04T11:39:56;3.47;;;2.17;;
13014;SDS011;6573;57.696;11.950;2023-02-04T11:42:30;5.33;;;2.20;;
13014;SDS011;6573;57.696;11.950;2023-02-04T11:45:11;4.17;;;2.17;;
13014;SDS011;6573;57.696;11.950;2023-02-04T11:47:42;3.43;;;2.00;;
13014;SDS011;6573;57.696;11.950;2023-02-04T11:50:14;3.93;;;2.30;;
13014;SDS011;6573;57.696;11.950;2023-02-04T11:52:47;4.30;;;2.30;;
13014;SDS011;6573;57.696;11.950;2023-02-04T11:55:16;4.30;;;2.23;;
13014;SDS011;6573;57.696;11.950;2023-02-04T11:57:49;4.63;;;2.30;;
13014;SDS011;6573;57.696;11.950;2023-02-04T12:00:19;5.03;;;2.70;;
13014;SDS011;6573;57.696;11.950;2023-02-04T12:02:49;4.33;;;2.30;;
13014;SDS011;6573;57.696;11.950;2023-02-04T12:05:28;4.07;;;2.00;;
13014;SDS011;6573;57.696;11.950;2023-02-04T12:08:23;5.80;;;3.17;;
13014;SDS011;6573;57.696;11.950;2023-02-04T12:11:01;5.20;;;2.87;;
13014;SDS011;6573;57.696;11.950;2023-02-04T12:13:33;5.90;;;2.50;;
13014;SDS011;6573;57.696;11.950;2023-02-04T12:16:02;4.43;;;2.70;;
13014;SDS011;6573;57.696;11.950;2023-02-04T12:18:33;5.47;;;2.93;;
13014;SDS011;6573;57.696;11.950;2023-02-04T12:21:02;4.60;;;2.40;;
13014;SDS011;6573;57.696;11.950;2023-02-04T12:23:32;4.53;;;2.63;;
13014;SDS011;6573;57.696;11.950;2023-02-04T12:26:00;3.57;;;2.10;;
13014;SDS011;6573;57.696;11.950;2023-02-04T12:28:33;4.10;;;2.00;;
13014;SDS011;6573;57.696;11.950;2023-02-04T12:31:02;4.40;;;1.80;;
13014;SDS011;6573;57.696;11.950;2023-02-04T12:33:30;4.43;;;1.97;;
13014;SDS011;6573;57.696;11.950;2023-02-04T12:36:00;3.47;;;1.97;;
13014;SDS011;6573;57.696;11.950;2023-02-04T12:38:29;4.53;;;2.10;;
13014;SDS011;6573;57.696;11.950;2023-02-04T12:40:58;5.00;;;2.07;;
13014;SDS011;6573;57.696;11.950;2023-02-04T12:43:27;2.73;;;1.77;;
13014;SDS011;6573;57.696;11.950;2023-02-04T12:45:55;4.23;;;2.60;;
13014;SDS011;6573;57.696;11.950;2023-02-04T12:48:23;2.37;;;1.20;;
13014;SDS011;6573;57.696;11.950;2023-02-04T12:50:53;2.23;;;1.10;;
13014;SDS011;6573;57.696;11.950;2023-02-04T12:53:21;2.40;;;1.20;;
13014;SDS011;6573;57.696;11.950;2023-02-04T12:55:49;2.20;;;1.40;;
13014;SDS011;6573;57.696;11.950;2023-02-04T12:58:19;2.97;;;1.57;;
13014;SDS011;6573;57.696;11.950;2023-02-04T13:00:47;4.17;;;1.50;;
13014;SDS011;6573;57.696;11.950;2023-02-04T13:03:15;1.90;;;1.30;;
13014;SDS011;6573;57.696;11.950;2023-02-04T13:05:44;3.23;;;1.40;;
13014;SDS011;6573;57.696;11.950;2023-02-04T13:08:12;3.93;;;1.60;;
13014;SDS011;6573;57.696;11.950;2023-02-04T13:10:41;2.97;;;1.60;;
13014;SDS011;6573;57.696;11.950;2023-02-04T13:13:09;3.90;;;1.80;;
13014;SDS011;6573;57.696;11.950;2023-02-04T13:15:39;3.00;;;1.70;;
13014;SDS011;6573;57.696;11.950;2023-02-04T13:18:07;2.93;;;1.50;;
13014;SDS011;6573;57.696;11.950;2023-02-04T13:20:35;4.23;;;1.63;;
13014;SDS011;6573;57.696;11.950;2023-02-04T13:23:03;2.80;;;1.60;;
13014;SDS011;6573;57.696;11.950;2023-02-04T13:25:32;3.50;;;1.53;;
13014;SDS011;6573;57.696;11.950;2023-02-04T13:28:00;3.73;;;1.30;;
13014;SDS011;6573;57.696;11.950;2023-02-04T13:30:29;5.37;;;4.37;;
13014;SDS011;6573;57.696;11.950;2023-02-04T13:32:59;6.73;;;4.90;;
13014;SDS011;6573;57.696;11.950;2023-02-04T13:35:27;9.67;;;6.10;;
13014;SDS011;6573;57.696;11.950;2023-02-04T13:37:56;3.43;;;1.80;;
13014;SDS011;6573;57.696;11.950;2023-02-04T13:40:24;2.60;;;1.43;;
13014;SDS011;6573;57.696;11.950;2023-02-04T13:42:52;3.90;;;2.30;;
13014;SDS011;6573;57.696;11.950;2023-02-04T13:45:21;3.77;;;2.30;;
13014;SDS011;6573;57.696;11.950;2023-02-04T13:47:49;4.33;;;1.70;;
13014;SDS011;6573;57.696;11.950;2023-02-04T13:50:19;3.50;;;1.67;;
13014;SDS011;6573;57.696;11.950;2023-02-04T13:52:47;2.90;;;1.30;;
13014;SDS011;6573;57.696;11.950;2023-02-04T13:55:15;2.53;;;1.40;;
13014;SDS011;6573;57.696;11.950;2023-02-04T13:57:44;5.97;;;1.20;;
13014;SDS011;6573;57.696;11.950;2023-02-04T14:00:12;3.00;;;1.33;;
13014;SDS011;6573;57.696;11.950;2023-02-04T14:02:41;3.03;;;1.60;;
13014;SDS011;6573;57.696;11.950;2023-02-04T14:05:09;2.60;;;1.60;;
13014;SDS011;6573;57.696;11.950;2023-02-04T14:07:39;2.23;;;1.40;;
13014;SDS011;6573;57.696;11.950;2023-02-04T14:10:08;1.93;;;1.40;;
13014;SDS011;6573;57.696;11.950;2023-02-04T14:12:36;3.53;;;1.70;;
13014;SDS011;6573;57.696;11.950;2023-02-04T14:15:07;3.17;;;1.50;;
13014;SDS011;6573;57.696;11.950;2023-02-04T14:17:36;3.77;;;1.87;;
13014;SDS011;6573;57.696;11.950;2023-02-04T14:20:04;4.20;;;2.20;;
13014;SDS011;6573;57.696;11.950;2023-02-04T14:22:33;4.93;;;2.17;;
13014;SDS011;6573;57.696;11.950;2023-02-04T14:25:03;7.33;;;4.70;;
13014;SDS011;6573;57.696;11.950;2023-02-04T14:27:32;4.60;;;2.47;;
13014;SDS011;6573;57.696;11.950;2023-02-04T14:30:00;3.97;;;2.10;;
13014;SDS011;6573;57.696;11.950;2023-02-04T14:32:29;3.73;;;2.00;;
13014;SDS011;6573;57.696;11.950;2023-02-04T14:34:57;5.10;;;2.10;;
13014;SDS011;6573;57.696;11.950;2023-02-04T14:37:28;4.57;;;2.30;;
13014;SDS011;6573;57.696;11.950;2023-02-04T14:39:56;6.17;;;3.57;;
13014;SDS011;6573;57.696;11.950;2023-02-04T14:42:29;3.40;;;2.07;;
13014;SDS011;6573;57.696;11.950;2023-02-04T14:44:57;5.07;;;3.00;;
13014;SDS011;6573;57.696;11.950;2023-02-04T14:47:26;3.97;;;2.40;;
13014;SDS011;6573;57.696;11.950;2023-02-04T14:49:54;3.73;;;2.40;;
13014;SDS011;6573;57.696;11.950;2023-02-04T14:52:23;3.80;;;2.53;;
13014;SDS011;6573;57.696;11.950;2023-02-04T14:54:54;4.10;;;2.80;;
13014;SDS011;6573;57.696;11.950;2023-02-04T14:57:26;11.37;;;6.50;;
13014;SDS011;6573;57.696;11.950;2023-02-04T14:59:55;7.53;;;5.20;;
13014;SDS011;6573;57.696;11.950;2023-02-04T15:02:29;4.67;;;2.67;;
13014;SDS011;6573;57.696;11.950;2023-02-04T15:04:58;2.83;;;2.00;;
13014;SDS011;6573;57.696;11.950;2023-02-04T15:07:26;3.00;;;2.13;;
13014;SDS011;6573;57.696;11.950;2023-02-04T15:09:54;3.90;;;2.93;;